sensor_id;sensor_type;location;lat;lon;timestamp;P1;durP1;ratioP1;P2;durP2;ratioP2
2622;SDS011;1321;48.690;9.022;2023-09-19T00:00:57;13.30;;;12.87;;
2622;SDS011;1321;48.690;9.022;2023-09-19T00:09:13;13.50;;;13.07;;
2622;SDS011;1321;48.690;9.022;2023-09-19T00:11:42;13.70;;;13.30;;
2622;SDS011;1321;48.690;9.022;2023-09-19T00:14:11;13.63;;;13.20;;
2622;SDS011;1321;48.690;9.022;2023-09-19T00:16:51;13.20;;;12.90;;
2622;SDS011;1321;48.690;9.022;2023-09-19T00:19:36;13.60;;;13.20;;
2622;SDS011;1321;48.690;9.022;2023-09-19T00:27:59;13.10;;;12.80;;
2622;SDS011;1321;48.690;9.022;2023-09-19T00:33:29;13.23;;;12.83;;
2622;SDS011;1321;48.690;9.022;2023-09-19T00:35:57;13.47;;;13.10;;
2622;SDS011;1321;48.690;9.022;2023-09-19T00:41:28;13.40;;;13.00;;
2622;SDS011;1321;48.690;9.022;2023-09-19T00:43:57;13.50;;;13.20;;
2622;SDS011;1321;48.690;9.022;2023-09-19T00:46:26;13.87;;;13.47;;
2622;SDS011;1321;48.690;9.022;2023-09-19T00:48:56;13.67;;;13.17;;
2622;SDS011;1321;48.690;9.022;2023-09-19T00:51:25;13.60;;;13.20;;
2622;SDS011;1321;48.690;9.022;2023-09-19T00:53:54;13.50;;;13.20;;
2622;SDS011;1321;48.690;9.022;2023-09-19T00:56:22;14.00;;;13.60;;
2622;SDS011;1321;48.690;9.022;2023-09-19T00:58:51;13.83;;;13.50;;
2622;SDS011;1321;48.690;9.022;2023-09-19T01:01:19;13.70;;;13.40;;
2622;SDS011;1321;48.690;9.022;2023-09-19T01:03:48;13.87;;;13.37;;
2622;SDS011;1321;48.690;9.022;2023-09-19T01:06:18;14.07;;;13.57;;
2622;SDS011;1321;48.690;9.022;2023-09-19T01:08:48;13.10;;;12.80;;
2622;SDS011;1321;48.690;9.022;2023-09-19T01:11:18;13.20;;;12.90;;
2622;SDS011;1321;48.690;9.022;2023-09-19T01:13:56;13.40;;;13.10;;
2622;SDS011;1321;48.690;9.022;2023-09-19T01:16:32;13.70;;;13.30;;
2622;SDS011;1321;48.690;9.022;2023-09-19T01:19:18;13.53;;;13.23;;
2622;SDS011;1321;48.690;9.022;2023-09-19T01:22:09;13.50;;;13.20;;
2622;SDS011;1321;48.690;9.022;2023-09-19T01:24:54;14.17;;;13.67;;
2622;SDS011;1321;48.690;9.022;2023-09-19T01:30:44;13.50;;;13.20;;
2622;SDS011;1321;48.690;9.022;2023-09-19T01:33:14;13.50;;;13.10;;
2622;SDS011;1321;48.690;9.022;2023-09-19T01:35:43;13.50;;;13.10;;
2622;SDS011;1321;48.690;9.022;2023-09-19T01:38:11;13.57;;;13.17;;
2622;SDS011;1321;48.690;9.022;2023-09-19T01:40:41;13.50;;;13.20;;
2622;SDS011;1321;48.690;9.022;2023-09-19T01:43:12;13.50;;;13.10;;
2622;SDS011;1321;48.690;9.022;2023-09-19T01:45:50;13.53;;;13.13;;
2622;SDS011;1321;48.690;9.022;2023-09-19T01:48:30;13.57;;;13.20;;
2622;SDS011;1321;48.690;9.022;2023-09-19T01:51:07;13.80;;;13.40;;
2622;SDS011;1321;48.690;9.022;2023-09-19T01:53:39;13.50;;;13.20;;
2622;SDS011;1321;48.690;9.022;2023-09-19T01:56:12;13.60;;;13.30;;
2622;SDS011;1321;48.690;9.022;2023-09-19T01:58:56;13.80;;;13.40;;
2622;SDS011;1321;48.690;9.022;2023-09-19T02:01:28;13.57;;;13.27;;
2622;SDS011;1321;48.690;9.022;2023-09-19T02:03:57;14.07;;;13.67;;
2622;SDS011;1321;48.690;9.022;2023-09-19T02:06:26;13.83;;;13.47;;
2622;SDS011;1321;48.690;9.022;2023-09-19T02:08:54;14.00;;;13.50;;
2622;SDS011;1321;48.690;9.022;2023-09-19T02:11:23;13.70;;;13.30;;
2622;SDS011;1321;48.690;9.022;2023-09-19T02:13:51;13.87;;;13.30;;
2622;SDS011;1321;48.690;9.022;2023-09-19T02:16:21;13.40;;;13.10;;
2622;SDS011;1321;48.690;9.022;2023-09-19T02:18:50;13.80;;;13.40;;
2622;SDS011;1321;48.690;9.022;2023-09-19T02:21:18;13.97;;;13.53;;
2622;SDS011;1321;48.690;9.022;2023-09-19T02:23:48;13.60;;;13.20;;
2622;SDS011;1321;48.690;9.022;2023-09-19T02:26:18;13.90;;;13.30;;
2622;SDS011;1321;48.690;9.022;2023-09-19T02:28:46;13.90;;;13.50;;
2622;SDS011;1321;48.690;9.022;2023-09-19T02:31:14;13.70;;;13.20;;
2622;SDS011;1321;48.690;9.022;2023-09-19T02:33:43;13.60;;;13.30;;
2622;SDS011;1321;48.690;9.022;2023-09-19T02:36:14;13.50;;;13.20;;
2622;SDS011;1321;48.690;9.022;2023-09-19T02:38:44;13.80;;;13.43;;
2622;SDS011;1321;48.690;9.022;2023-09-19T02:41:12;13.43;;;13.13;;
2622;SDS011;1321;48.690;9.022;2023-09-19T02:43:40;14.07;;;13.67;;
2622;SDS011;1321;48.690;9.022;2023-09-19T02:46:09;14.17;;;13.67;;
2622;SDS011;1321;48.690;9.022;2023-09-19T02:48:38;13.70;;;13.40;;
2622;SDS011;1321;48.690;9.022;2023-09-19T02:51:06;14.53;;;14.07;;
2622;SDS011;1321;48.690;9.022;2023-09-19T02:53:36;13.97;;;13.57;;
2622;SDS011;1321;48.690;9.022;2023-09-19T02:56:05;13.77;;;13.37;;
2622;SDS011;1321;48.690;9.022;2023-09-19T02:58:33;13.93;;;13.60;;
2622;SDS011;1321;48.690;9.022;2023-09-19T03:01:07;14.17;;;13.77;;
2622;SDS011;1321;48.690;9.022;2023-09-19T03:03:38;13.50;;;13.20;;
2622;SDS011;1321;48.690;9.022;2023-09-19T03:06:07;14.07;;;13.67;;
2622;SDS011;1321;48.690;9.022;2023-09-19T03:08:37;13.87;;;13.47;;
2622;SDS011;1321;48.690;9.022;2023-09-19T03:11:06;13.83;;;13.43;;
2622;SDS011;1321;48.690;9.022;2023-09-19T03:13:39;13.80;;;13.40;;
2622;SDS011;1321;48.690;9.022;2023-09-19T03:16:16;14.20;;;13.80;;
2622;SDS011;1321;48.690;9.022;2023-09-19T03:18:45;14.30;;;13.90;;
2622;SDS011;1321;48.690;9.022;2023-09-19T03:21:14;13.90;;;13.60;;
2622;SDS011;1321;48.690;9.022;2023-09-19T03:23:44;13.80;;;13.43;;
2622;SDS011;1321;48.690;9.022;2023-09-19T03:26:13;14.03;;;13.70;;
2622;SDS011;1321;48.690;9.022;2023-09-19T03:28:42;14.00;;;13.60;;
2622;SDS011;1321;48.690;9.022;2023-09-19T03:31:12;14.80;;;14.37;;
2622;SDS011;1321;48.690;9.022;2023-09-19T03:33:41;14.00;;;13.70;;
2622;SDS011;1321;48.690;9.022;2023-09-19T03:36:09;14.00;;;13.70;;
2622;SDS011;1321;48.690;9.022;2023-09-19T03:38:38;14.40;;;14.00;;
2622;SDS011;1321;48.690;9.022;2023-09-19T03:41:08;14.20;;;13.80;;
2622;SDS011;1321;48.690;9.022;2023-09-19T03:43:40;14.30;;;13.90;;
2622;SDS011;1321;48.690;9.022;2023-09-19T03:46:09;14.20;;;13.80;;
2622;SDS011;1321;48.690;9.022;2023-09-19T03:48:39;14.50;;;14.10;;
2622;SDS011;1321;48.690;9.022;2023-09-19T03:51:07;14.20;;;13.80;;
2622;SDS011;1321;48.690;9.022;2023-09-19T03:53:37;14.47;;;13.97;;
2622;SDS011;1321;48.690;9.022;2023-09-19T03:56:05;14.80;;;14.40;;
2622;SDS011;1321;48.690;9.022;2023-09-19T03:58:47;14.20;;;13.70;;
2622;SDS011;1321;48.690;9.022;2023-09-19T04:02:01;14.60;;;14.00;;
2622;SDS011;1321;48.690;9.022;2023-09-19T04:05:53;14.10;;;13.70;;
2622;SDS011;1321;48.690;9.022;2023-09-19T04:09:03;13.70;;;13.40;;
2622;SDS011;1321;48.690;9.022;2023-09-19T04:12:40;14.97;;;14.50;;
2622;SDS011;1321;48.690;9.022;2023-09-19T04:16:14;14.33;;;13.90;;
2622;SDS011;1321;48.690;9.022;2023-09-19T04:19:34;14.70;;;14.30;;
2622;SDS011;1321;48.690;9.022;2023-09-19T04:23:08;14.57;;;13.97;;
2622;SDS011;1321;48.690;9.022;2023-09-19T04:26:39;14.83;;;14.37;;
2622;SDS011;1321;48.690;9.022;2023-09-19T04:32:58;14.73;;;14.33;;
2622;SDS011;1321;48.690;9.022;2023-09-19T04:35:52;14.87;;;14.27;;
2622;SDS011;1321;48.690;9.022;2023-09-19T04:38:54;14.40;;;14.00;;
2622;SDS011;1321;48.690;9.022;2023-09-19T04:41:28;14.33;;;13.93;;
2622;SDS011;1321;48.690;9.022;2023-09-19T04:43:56;14.87;;;14.37;;
2622;SDS011;1321;48.690;9.022;2023-09-19T04:46:24;14.60;;;14.20;;
2622;SDS011;1321;48.690;9.022;2023-09-19T04:48:54;14.47;;;14.07;;
2622;SDS011;1321;48.690;9.022;2023-09-19T04:51:25;15.27;;;14.77;;
2622;SDS011;1321;48.690;9.022;2023-09-19T04:53:57;15.20;;;14.70;;
2622;SDS011;1321;48.690;9.022;2023-09-19T04:56:26;14.67;;;14.27;;
2622;SDS011;1321;48.690;9.022;2023-09-19T04:58:59;15.70;;;15.20;;
2622;SDS011;1321;48.690;9.022;2023-09-19T05:01:27;16.43;;;15.80;;
2622;SDS011;1321;48.690;9.022;2023-09-19T05:03:57;14.83;;;14.37;;
2622;SDS011;1321;48.690;9.022;2023-09-19T05:06:25;14.67;;;14.27;;
2622;SDS011;1321;48.690;9.022;2023-09-19T05:08:54;15.67;;;15.07;;
2622;SDS011;1321;48.690;9.022;2023-09-19T05:11:26;14.60;;;14.20;;
2622;SDS011;1321;48.690;9.022;2023-09-19T05:14:02;14.80;;;14.40;;
2622;SDS011;1321;48.690;9.022;2023-09-19T05:16:42;15.00;;;14.50;;
2622;SDS011;1321;48.690;9.022;2023-09-19T05:19:17;14.67;;;14.27;;
2622;SDS011;1321;48.690;9.022;2023-09-19T05:22:04;15.17;;;14.37;;
2622;SDS011;1321;48.690;9.022;2023-09-19T05:24:54;15.50;;;15.00;;
2622;SDS011;1321;48.690;9.022;2023-09-19T05:27:49;15.63;;;15.13;;
2622;SDS011;1321;48.690;9.022;2023-09-19T05:30:36;15.10;;;14.60;;
2622;SDS011;1321;48.690;9.022;2023-09-19T05:33:29;15.20;;;14.60;;
2622;SDS011;1321;48.690;9.022;2023-09-19T05:36:33;15.63;;;14.70;;
2622;SDS011;1321;48.690;9.022;2023-09-19T05:39:42;15.10;;;14.50;;
2622;SDS011;1321;48.690;9.022;2023-09-19T05:42:24;15.13;;;14.63;;
2622;SDS011;1321;48.690;9.022;2023-09-19T05:44:56;15.00;;;14.50;;
2622;SDS011;1321;48.690;9.022;2023-09-19T05:47:26;15.10;;;14.60;;
2622;SDS011;1321;48.690;9.022;2023-09-19T05:49:55;14.77;;;14.27;;
2622;SDS011;1321;48.690;9.022;2023-09-19T05:52:28;15.37;;;14.90;;
2622;SDS011;1321;48.690;9.022;2023-09-19T05:54:58;15.40;;;14.80;;
2622;SDS011;1321;48.690;9.022;2023-09-19T05:57:29;15.40;;;14.90;;
2622;SDS011;1321;48.690;9.022;2023-09-19T05:59:59;15.67;;;15.10;;
2622;SDS011;1321;48.690;9.022;2023-09-19T06:02:28;15.57;;;15.07;;
2622;SDS011;1321;48.690;9.022;2023-09-19T06:04:58;15.83;;;15.33;;
2622;SDS011;1321;48.690;9.022;2023-09-19T06:07:29;15.77;;;15.27;;
2622;SDS011;1321;48.690;9.022;2023-09-19T06:10:05;15.73;;;15.23;;
2622;SDS011;1321;48.690;9.022;2023-09-19T06:12:37;15.60;;;15.03;;
2622;SDS011;1321;48.690;9.022;2023-09-19T06:15:08;15.33;;;14.80;;
2622;SDS011;1321;48.690;9.022;2023-09-19T06:17:42;15.50;;;15.00;;
2622;SDS011;1321;48.690;9.022;2023-09-19T06:20:12;15.43;;;14.93;;
2622;SDS011;1321;48.690;9.022;2023-09-19T06:22:45;15.30;;;14.80;;
2622;SDS011;1321;48.690;9.022;2023-09-19T06:25:16;15.20;;;14.80;;
2622;SDS011;1321;48.690;9.022;2023-09-19T06:27:48;15.37;;;14.90;;
2622;SDS011;1321;48.690;9.022;2023-09-19T06:30:20;16.00;;;15.40;;
2622;SDS011;1321;48.690;9.022;2023-09-19T06:32:55;15.50;;;15.00;;
2622;SDS011;1321;48.690;9.022;2023-09-19T06:35:26;15.40;;;14.90;;
2622;SDS011;1321;48.690;9.022;2023-09-19T06:37:58;15.30;;;14.80;;
2622;SDS011;1321;48.690;9.022;2023-09-19T06:40:29;15.37;;;14.87;;
2622;SDS011;1321;48.690;9.022;2023-09-19T06:42:58;15.87;;;15.37;;
2622;SDS011;1321;48.690;9.022;2023-09-19T06:45:28;15.20;;;14.70;;
2622;SDS011;1321;48.690;9.022;2023-09-19T06:47:58;15.77;;;15.27;;
2622;SDS011;1321;48.690;9.022;2023-09-19T06:50:29;15.63;;;15.03;;
2622;SDS011;1321;48.690;9.022;2023-09-19T06:53:17;15.60;;;15.10;;
2622;SDS011;1321;48.690;9.022;2023-09-19T06:59:27;15.10;;;14.70;;
2622;SDS011;1321;48.690;9.022;2023-09-19T07:02:27;15.37;;;14.83;;
2622;SDS011;1321;48.690;9.022;2023-09-19T07:05:35;15.30;;;14.90;;
2622;SDS011;1321;48.690;9.022;2023-09-19T07:08:29;15.20;;;14.70;;
2622;SDS011;1321;48.690;9.022;2023-09-19T07:11:21;15.30;;;14.80;;
2622;SDS011;1321;48.690;9.022;2023-09-19T07:14:27;16.07;;;15.30;;
2622;SDS011;1321;48.690;9.022;2023-09-19T07:17:55;15.70;;;15.10;;
2622;SDS011;1321;48.690;9.022;2023-09-19T07:21:04;15.20;;;14.80;;
2622;SDS011;1321;48.690;9.022;2023-09-19T07:27:13;14.77;;;14.37;;
2622;SDS011;1321;48.690;9.022;2023-09-19T07:30:20;15.07;;;14.67;;
2622;SDS011;1321;48.690;9.022;2023-09-19T07:33:19;15.13;;;14.53;;
2622;SDS011;1321;48.690;9.022;2023-09-19T07:36:11;15.90;;;15.20;;
2622;SDS011;1321;48.690;9.022;2023-09-19T07:42:38;15.03;;;14.63;;
2622;SDS011;1321;48.690;9.022;2023-09-19T07:45:44;15.27;;;14.77;;
2622;SDS011;1321;48.690;9.022;2023-09-19T07:48:57;15.47;;;14.97;;
2622;SDS011;1321;48.690;9.022;2023-09-19T07:52:07;16.30;;;15.70;;
2622;SDS011;1321;48.690;9.022;2023-09-19T07:55:06;16.17;;;15.60;;
2622;SDS011;1321;48.690;9.022;2023-09-19T08:01:37;15.60;;;15.10;;
2622;SDS011;1321;48.690;9.022;2023-09-19T08:04:28;15.37;;;14.90;;
2622;SDS011;1321;48.690;9.022;2023-09-19T08:07:45;15.70;;;15.13;;
2622;SDS011;1321;48.690;9.022;2023-09-19T08:10:40;17.27;;;16.57;;
2622;SDS011;1321;48.690;9.022;2023-09-19T08:13:50;15.60;;;15.10;;
2622;SDS011;1321;48.690;9.022;2023-09-19T08:16:56;15.33;;;14.90;;
2622;SDS011;1321;48.690;9.022;2023-09-19T08:20:00;15.47;;;15.00;;
2622;SDS011;1321;48.690;9.022;2023-09-19T08:29:07;15.67;;;15.10;;
2622;SDS011;1321;48.690;9.022;2023-09-19T08:32:00;15.50;;;15.00;;
2622;SDS011;1321;48.690;9.022;2023-09-19T08:34:58;15.00;;;14.50;;
2622;SDS011;1321;48.690;9.022;2023-09-19T08:37:53;15.67;;;15.07;;
2622;SDS011;1321;48.690;9.022;2023-09-19T08:40:48;15.13;;;14.70;;
2622;SDS011;1321;48.690;9.022;2023-09-19T08:43:44;15.10;;;14.60;;
2622;SDS011;1321;48.690;9.022;2023-09-19T08:46:41;15.13;;;14.73;;
2622;SDS011;1321;48.690;9.022;2023-09-19T08:49:36;15.07;;;14.67;;
2622;SDS011;1321;48.690;9.022;2023-09-19T08:52:36;15.40;;;14.80;;
2622;SDS011;1321;48.690;9.022;2023-09-19T08:55:45;15.30;;;14.90;;
2622;SDS011;1321;48.690;9.022;2023-09-19T08:58:42;15.20;;;14.80;;
2622;SDS011;1321;48.690;9.022;2023-09-19T09:02:38;15.10;;;14.70;;
2622;SDS011;1321;48.690;9.022;2023-09-19T09:07:10;15.50;;;15.10;;
2622;SDS011;1321;48.690;9.022;2023-09-19T09:09:14;16.07;;;15.50;;
2622;SDS011;1321;48.690;9.022;2023-09-19T09:12:16;15.60;;;15.00;;
2622;SDS011;1321;48.690;9.022;2023-09-19T09:15:25;16.10;;;15.60;;
2622;SDS011;1321;48.690;9.022;2023-09-19T09:18:15;15.53;;;15.03;;
2622;SDS011;1321;48.690;9.022;2023-09-19T09:21:05;15.67;;;14.97;;
2622;SDS011;1321;48.690;9.022;2023-09-19T09:23:40;15.00;;;14.60;;
2622;SDS011;1321;48.690;9.022;2023-09-19T09:26:16;15.50;;;15.10;;
2622;SDS011;1321;48.690;9.022;2023-09-19T09:28:56;15.23;;;14.83;;
2622;SDS011;1321;48.690;9.022;2023-09-19T09:31:34;15.00;;;14.60;;
2622;SDS011;1321;48.690;9.022;2023-09-19T09:34:35;15.43;;;15.03;;
2622;SDS011;1321;48.690;9.022;2023-09-19T09:40:34;14.43;;;14.03;;
2622;SDS011;1321;48.690;9.022;2023-09-19T09:43:33;14.93;;;14.53;;
2622;SDS011;1321;48.690;9.022;2023-09-19T09:46:20;14.67;;;14.27;;
2622;SDS011;1321;48.690;9.022;2023-09-19T09:49:26;15.20;;;14.60;;
2622;SDS011;1321;48.690;9.022;2023-09-19T09:54:59;19.53;;;18.17;;
2622;SDS011;1321;48.690;9.022;2023-09-19T09:57:34;15.57;;;15.07;;
2622;SDS011;1321;48.690;9.022;2023-09-19T10:00:24;15.00;;;14.60;;
2622;SDS011;1321;48.690;9.022;2023-09-19T10:03:19;15.20;;;14.70;;
2622;SDS011;1321;48.690;9.022;2023-09-19T10:06:39;15.53;;;15.03;;
2622;SDS011;1321;48.690;9.022;2023-09-19T10:09:23;15.70;;;15.07;;
2622;SDS011;1321;48.690;9.022;2023-09-19T10:12:00;15.00;;;14.50;;
2622;SDS011;1321;48.690;9.022;2023-09-19T10:14:43;14.23;;;13.83;;
2622;SDS011;1321;48.690;9.022;2023-09-19T10:17:32;15.10;;;14.60;;
2622;SDS011;1321;48.690;9.022;2023-09-19T10:20:17;14.30;;;14.00;;
2622;SDS011;1321;48.690;9.022;2023-09-19T10:23:07;15.50;;;14.70;;
2622;SDS011;1321;48.690;9.022;2023-09-19T10:25:51;14.80;;;14.30;;
2622;SDS011;1321;48.690;9.022;2023-09-19T10:28:34;14.50;;;14.10;;
2622;SDS011;1321;48.690;9.022;2023-09-19T10:31:09;14.40;;;13.80;;
2622;SDS011;1321;48.690;9.022;2023-09-19T10:33:45;14.60;;;14.10;;
2622;SDS011;1321;48.690;9.022;2023-09-19T10:36:32;14.20;;;13.80;;
2622;SDS011;1321;48.690;9.022;2023-09-19T10:39:14;13.60;;;13.20;;
2622;SDS011;1321;48.690;9.022;2023-09-19T10:42:07;13.93;;;13.50;;
2622;SDS011;1321;48.690;9.022;2023-09-19T10:44:50;14.30;;;13.90;;
2622;SDS011;1321;48.690;9.022;2023-09-19T10:47:24;15.23;;;14.73;;
2622;SDS011;1321;48.690;9.022;2023-09-19T10:49:57;15.10;;;14.67;;
2622;SDS011;1321;48.690;9.022;2023-09-19T10:52:52;14.37;;;13.97;;
2622;SDS011;1321;48.690;9.022;2023-09-19T10:55:38;14.70;;;14.30;;
2622;SDS011;1321;48.690;9.022;2023-09-19T10:58:26;15.23;;;14.73;;
2622;SDS011;1321;48.690;9.022;2023-09-19T11:01:41;14.90;;;14.50;;
2622;SDS011;1321;48.690;9.022;2023-09-19T11:04:21;14.77;;;14.37;;
2622;SDS011;1321;48.690;9.022;2023-09-19T11:07:05;14.60;;;14.20;;
2622;SDS011;1321;48.690;9.022;2023-09-19T11:09:49;14.40;;;14.00;;
2622;SDS011;1321;48.690;9.022;2023-09-19T11:12:50;14.90;;;14.50;;
2622;SDS011;1321;48.690;9.022;2023-09-19T11:21:39;14.27;;;13.97;;
2622;SDS011;1321;48.690;9.022;2023-09-19T11:24:33;14.07;;;13.67;;
2622;SDS011;1321;48.690;9.022;2023-09-19T11:27:15;14.03;;;13.70;;
2622;SDS011;1321;48.690;9.022;2023-09-19T11:30:25;14.50;;;13.90;;
2622;SDS011;1321;48.690;9.022;2023-09-19T11:33:19;14.37;;;13.93;;
2622;SDS011;1321;48.690;9.022;2023-09-19T11:36:03;14.07;;;13.70;;
2622;SDS011;1321;48.690;9.022;2023-09-19T11:39:24;14.23;;;13.80;;
2622;SDS011;1321;48.690;9.022;2023-09-19T11:42:03;13.70;;;13.40;;
2622;SDS011;1321;48.690;9.022;2023-09-19T11:52:01;14.10;;;13.80;;
2622;SDS011;1321;48.690;9.022;2023-09-19T11:54:46;14.00;;;13.70;;
2622;SDS011;1321;48.690;9.022;2023-09-19T11:57:32;14.73;;;14.33;;
2622;SDS011;1321;48.690;9.022;2023-09-19T12:00:17;15.77;;;14.70;;
2622;SDS011;1321;48.690;9.022;2023-09-19T12:07:01;14.60;;;14.10;;
2622;SDS011;1321;48.690;9.022;2023-09-19T12:10:17;14.10;;;13.70;;
2622;SDS011;1321;48.690;9.022;2023-09-19T12:12:57;14.97;;;14.30;;
2622;SDS011;1321;48.690;9.022;2023-09-19T12:39:54;15.17;;;14.67;;
2622;SDS011;1321;48.690;9.022;2023-09-19T12:42:46;14.30;;;14.00;;
2622;SDS011;1321;48.690;9.022;2023-09-19T12:45:21;14.70;;;14.30;;
2622;SDS011;1321;48.690;9.022;2023-09-19T12:48:19;15.80;;;14.87;;
2622;SDS011;1321;48.690;9.022;2023-09-19T12:51:00;15.20;;;14.63;;
2622;SDS011;1321;48.690;9.022;2023-09-19T12:53:57;14.60;;;14.30;;
2622;SDS011;1321;48.690;9.022;2023-09-19T12:56:39;15.30;;;14.90;;
2622;SDS011;1321;48.690;9.022;2023-09-19T12:59:29;15.43;;;14.93;;
2622;SDS011;1321;48.690;9.022;2023-09-19T13:02:09;14.80;;;14.30;;
2622;SDS011;1321;48.690;9.022;2023-09-19T13:27:40;14.60;;;14.20;;
2622;SDS011;1321;48.690;9.022;2023-09-19T13:30:37;14.30;;;13.90;;
2622;SDS011;1321;48.690;9.022;2023-09-19T13:33:42;14.70;;;14.10;;
2622;SDS011;1321;48.690;9.022;2023-09-19T13:36:40;14.43;;;14.03;;
2622;SDS011;1321;48.690;9.022;2023-09-19T13:39:40;14.27;;;13.53;;
2622;SDS011;1321;48.690;9.022;2023-09-19T13:42:53;14.90;;;14.30;;
2622;SDS011;1321;48.690;9.022;2023-09-19T13:46:16;13.80;;;13.50;;
2622;SDS011;1321;48.690;9.022;2023-09-19T13:49:05;14.60;;;14.10;;
2622;SDS011;1321;48.690;9.022;2023-09-19T13:52:05;13.70;;;13.40;;
2622;SDS011;1321;48.690;9.022;2023-09-19T13:54:59;13.90;;;13.53;;
2622;SDS011;1321;48.690;9.022;2023-09-19T13:57:41;16.97;;;16.37;;
2622;SDS011;1321;48.690;9.022;2023-09-19T14:00:32;14.10;;;13.80;;
2622;SDS011;1321;48.690;9.022;2023-09-19T14:03:01;14.52;;;13.98;;
2622;SDS011;1321;48.690;9.022;2023-09-19T14:05:31;13.73;;;13.20;;
2622;SDS011;1321;48.690;9.022;2023-09-19T14:08:00;13.50;;;13.10;;
2622;SDS011;1321;48.690;9.022;2023-09-19T14:10:30;12.90;;;12.60;;
2622;SDS011;1321;48.690;9.022;2023-09-19T14:13:05;11.90;;;11.30;;
2622;SDS011;1321;48.690;9.022;2023-09-19T14:15:51;11.30;;;11.00;;
2622;SDS011;1321;48.690;9.022;2023-09-19T14:18:41;12.07;;;11.77;;
2622;SDS011;1321;48.690;9.022;2023-09-19T14:24:44;11.80;;;11.50;;
2622;SDS011;1321;48.690;9.022;2023-09-19T14:28:08;12.00;;;11.70;;
2622;SDS011;1321;48.690;9.022;2023-09-19T14:30:58;12.00;;;11.60;;
2622;SDS011;1321;48.690;9.022;2023-09-19T14:41:47;11.33;;;11.10;;
2622;SDS011;1321;48.690;9.022;2023-09-19T14:44:42;12.30;;;12.00;;
2622;SDS011;1321;48.690;9.022;2023-09-19T14:47:35;11.23;;;10.93;;
2622;SDS011;1321;48.690;9.022;2023-09-19T14:50:28;11.30;;;11.00;;
2622;SDS011;1321;48.690;9.022;2023-09-19T14:53:29;11.13;;;10.83;;
2622;SDS011;1321;48.690;9.022;2023-09-19T14:56:30;10.77;;;10.33;;
2622;SDS011;1321;48.690;9.022;2023-09-19T15:06:47;11.53;;;11.23;;
2622;SDS011;1321;48.690;9.022;2023-09-19T15:09:22;12.20;;;11.90;;
2622;SDS011;1321;48.690;9.022;2023-09-19T15:12:38;11.90;;;11.60;;
2622;SDS011;1321;48.690;9.022;2023-09-19T15:19:23;12.80;;;12.40;;
2622;SDS011;1321;48.690;9.022;2023-09-19T15:22:52;12.07;;;11.67;;
2622;SDS011;1321;48.690;9.022;2023-09-19T15:25:59;11.73;;;11.43;;
2622;SDS011;1321;48.690;9.022;2023-09-19T15:28:39;12.00;;;11.60;;
2622;SDS011;1321;48.690;9.022;2023-09-19T15:31:37;12.20;;;11.70;;
2622;SDS011;1321;48.690;9.022;2023-09-19T15:34:05;12.00;;;11.70;;
2622;SDS011;1321;48.690;9.022;2023-09-19T15:44:14;11.80;;;11.40;;
2622;SDS011;1321;48.690;9.022;2023-09-19T15:47:40;12.23;;;11.93;;
2622;SDS011;1321;48.690;9.022;2023-09-19T15:50:43;12.20;;;11.90;;
2622;SDS011;1321;48.690;9.022;2023-09-19T15:53:14;11.97;;;11.67;;
2622;SDS011;1321;48.690;9.022;2023-09-19T15:56:02;12.07;;;11.77;;
2622;SDS011;1321;48.690;9.022;2023-09-19T16:02:30;12.40;;;12.10;;
2622;SDS011;1321;48.690;9.022;2023-09-19T16:05:22;13.40;;;13.00;;
2622;SDS011;1321;48.690;9.022;2023-09-19T16:08:09;12.93;;;12.33;;
2622;SDS011;1321;48.690;9.022;2023-09-19T16:11:28;12.30;;;12.00;;
2622;SDS011;1321;48.690;9.022;2023-09-19T16:14:13;11.93;;;11.73;;
2622;SDS011;1321;48.690;9.022;2023-09-19T16:17:00;12.40;;;11.73;;
2622;SDS011;1321;48.690;9.022;2023-09-19T16:20:17;12.23;;;11.90;;
2622;SDS011;1321;48.690;9.022;2023-09-19T16:22:45;12.20;;;11.90;;
2622;SDS011;1321;48.690;9.022;2023-09-19T16:25:35;11.90;;;11.60;;
2622;SDS011;1321;48.690;9.022;2023-09-19T16:28:54;12.50;;;12.20;;
2622;SDS011;1321;48.690;9.022;2023-09-19T16:35:23;12.80;;;12.50;;
2622;SDS011;1321;48.690;9.022;2023-09-19T16:38:39;13.13;;;12.73;;
2622;SDS011;1321;48.690;9.022;2023-09-19T16:41:58;13.13;;;12.80;;
2622;SDS011;1321;48.690;9.022;2023-09-19T16:45:22;12.70;;;12.40;;
2622;SDS011;1321;48.690;9.022;2023-09-19T16:48:12;15.67;;;14.73;;
2622;SDS011;1321;48.690;9.022;2023-09-19T16:51:06;14.13;;;13.53;;
2622;SDS011;1321;48.690;9.022;2023-09-19T16:54:24;13.93;;;13.50;;
2622;SDS011;1321;48.690;9.022;2023-09-19T16:57:25;15.80;;;14.70;;
2622;SDS011;1321;48.690;9.022;2023-09-19T17:00:43;12.60;;;12.20;;
2622;SDS011;1321;48.690;9.022;2023-09-19T17:07:42;12.20;;;11.90;;
2622;SDS011;1321;48.690;9.022;2023-09-19T17:10:50;12.70;;;12.20;;
2622;SDS011;1321;48.690;9.022;2023-09-19T17:14:24;12.37;;;11.97;;
2622;SDS011;1321;48.690;9.022;2023-09-19T17:17:10;11.60;;;11.30;;
2622;SDS011;1321;48.690;9.022;2023-09-19T17:19:44;11.40;;;11.10;;
2622;SDS011;1321;48.690;9.022;2023-09-19T17:26:30;11.77;;;11.47;;
2622;SDS011;1321;48.690;9.022;2023-09-19T17:29:45;11.90;;;11.50;;
2622;SDS011;1321;48.690;9.022;2023-09-19T17:32:35;12.07;;;11.60;;
2622;SDS011;1321;48.690;9.022;2023-09-19T17:35:21;11.80;;;11.40;;
2622;SDS011;1321;48.690;9.022;2023-09-19T17:37:58;11.77;;;11.47;;
2622;SDS011;1321;48.690;9.022;2023-09-19T17:41:22;12.03;;;11.30;;
2622;SDS011;1321;48.690;9.022;2023-09-19T17:47:53;12.40;;;11.90;;
2622;SDS011;1321;48.690;9.022;2023-09-19T17:51:03;12.30;;;12.00;;
2622;SDS011;1321;48.690;9.022;2023-09-19T17:54:11;12.13;;;11.80;;
2622;SDS011;1321;48.690;9.022;2023-09-19T17:57:22;12.27;;;11.97;;
2622;SDS011;1321;48.690;9.022;2023-09-19T18:00:08;11.90;;;11.60;;
2622;SDS011;1321;48.690;9.022;2023-09-19T18:02:54;11.70;;;11.20;;
2622;SDS011;1321;48.690;9.022;2023-09-19T18:05:25;11.50;;;11.20;;
2622;SDS011;1321;48.690;9.022;2023-09-19T18:08:11;11.50;;;11.20;;
2622;SDS011;1321;48.690;9.022;2023-09-19T18:10:52;12.03;;;11.60;;
2622;SDS011;1321;48.690;9.022;2023-09-19T18:14:34;11.50;;;11.10;;
2622;SDS011;1321;48.690;9.022;2023-09-19T18:18:09;12.37;;;11.83;;
2622;SDS011;1321;48.690;9.022;2023-09-19T18:21:20;11.47;;;11.17;;
2622;SDS011;1321;48.690;9.022;2023-09-19T18:24:01;11.10;;;10.80;;
2622;SDS011;1321;48.690;9.022;2023-09-19T18:26:59;11.10;;;10.80;;
2622;SDS011;1321;48.690;9.022;2023-09-19T18:29:58;12.47;;;12.07;;
2622;SDS011;1321;48.690;9.022;2023-09-19T18:33:13;11.30;;;10.80;;
2622;SDS011;1321;48.690;9.022;2023-09-19T18:35:59;12.00;;;11.53;;
2622;SDS011;1321;48.690;9.022;2023-09-19T18:39:00;11.43;;;11.13;;
2622;SDS011;1321;48.690;9.022;2023-09-19T18:41:58;12.47;;;11.80;;
2622;SDS011;1321;48.690;9.022;2023-09-19T18:45:04;12.07;;;11.67;;
2622;SDS011;1321;48.690;9.022;2023-09-19T18:48:18;12.30;;;11.87;;
2622;SDS011;1321;48.690;9.022;2023-09-19T18:51:25;11.77;;;11.47;;
2622;SDS011;1321;48.690;9.022;2023-09-19T18:54:04;12.20;;;11.80;;
2622;SDS011;1321;48.690;9.022;2023-09-19T18:56:49;11.90;;;11.50;;
2622;SDS011;1321;48.690;9.022;2023-09-19T18:59:37;12.40;;;11.90;;
2622;SDS011;1321;48.690;9.022;2023-09-19T19:02:22;11.90;;;11.50;;
2622;SDS011;1321;48.690;9.022;2023-09-19T19:05:48;13.30;;;12.60;;
2622;SDS011;1321;48.690;9.022;2023-09-19T19:08:52;12.60;;;12.20;;
2622;SDS011;1321;48.690;9.022;2023-09-19T19:12:19;12.33;;;11.83;;
2622;SDS011;1321;48.690;9.022;2023-09-19T19:15:24;12.50;;;12.00;;
2622;SDS011;1321;48.690;9.022;2023-09-19T19:18:06;12.40;;;11.90;;
2622;SDS011;1321;48.690;9.022;2023-09-19T19:28:00;11.10;;;10.70;;
2622;SDS011;1321;48.690;9.022;2023-09-19T19:30:34;11.30;;;10.80;;
2622;SDS011;1321;48.690;9.022;2023-09-19T19:33:03;11.07;;;10.77;;
2622;SDS011;1321;48.690;9.022;2023-09-19T19:35:36;10.90;;;10.60;;
2622;SDS011;1321;48.690;9.022;2023-09-19T19:38:07;10.93;;;10.60;;